Time;durP1;ratioP1;P1;durP2;ratioP2;P2;SDS_P1;SDS_P2;PMS_P1;PMS_P2;Temp;Humidity;BMP_temperature;BMP_pressure;BME280_temperature;BME280_humidity;BME280_pressure;Samples;Min_cycle;Max_cycle;Signal;HPM_P1;HPM_P2
2022/05/05 00:02:15;;;;;;;8.90;8.00;;;;;;;;;;5073805;28;20438;-62
2022/05/05 00:04:41;;;;;;;10.00;8.00;;;;;;;;;;5073848;28;20419;-63
2022/05/05 00:07:07;;;;;;;8.80;7.50;;;;;;;;;;5059378;28;20948;-62
2022/05/05 00:09:33;;;;;;;9.00;8.13;;;;;;;;;;5053833;28;20402;-63
2022/05/05 00:14:44;;;;;;;9.53;8.63;;;;;;;;;;5053871;28;20443;-62
2022/05/05 00:17:10;;;;;;;9.67;8.70;;;;;;;;;;5053613;28;20807;-62
2022/05/05 00:19:37;;;;;;;8.43;7.57;;;;;;;;;;5053730;28;20410;-62
2022/05/05 00:22:04;;;;;;;8.60;7.60;;;;;;;;;;5053567;28;20443;-64
2022/05/05 00:24:30;;;;;;;7.87;7.17;;;;;;;;;;5053593;28;20413;-62
2022/05/05 00:26:56;;;;;;;9.10;7.87;;;;;;;;;;5053415;28;20432;-62
2022/05/05 00:29:23;;;;;;;9.13;8.27;;;;;;;;;;5053337;28;20896;-63
2022/05/05 00:31:49;;;;;;;9.00;8.10;;;;;;;;;;5053290;28;20990;-63
2022/05/05 00:34:16;;;;;;;8.43;7.47;;;;;;;;;;5053354;28;20438;-63
2022/05/05 00:36:42;;;;;;;8.13;7.33;;;;;;;;;;5053390;28;20508;-62
2022/05/05 00:39:11;;;;;;;12.73;7.77;;;;;;;;;;5053441;28;20448;-63
2022/05/05 00:41:37;;;;;;;8.63;7.83;;;;;;;;;;5053369;28;20743;-63
2022/05/05 00:44:04;;;;;;;8.90;8.00;;;;;;;;;;5053248;28;20428;-62
2022/05/05 00:46:31;;;;;;;9.00;7.83;;;;;;;;;;5053126;28;20884;-62
2022/05/05 00:48:57;;;;;;;7.70;7.00;;;;;;;;;;5053524;28;20742;-62
2022/05/05 00:51:23;;;;;;;12.10;7.90;;;;;;;;;;5053085;28;20526;-62
2022/05/05 00:53:49;;;;;;;9.17;8.17;;;;;;;;;;5053092;28;20410;-62
2022/05/05 00:56:16;;;;;;;7.53;6.73;;;;;;;;;;5053058;28;20486;-63
2022/05/05 00:58:45;;;;;;;8.90;8.03;;;;;;;;;;5053206;28;20919;-63
2022/05/05 01:01:14;;;;;;;8.50;7.50;;;;;;;;;;5053031;28;20415;-63
2022/05/05 01:03:40;;;;;;;11.73;8.40;;;;;;;;;;5052988;28;20452;-63
2022/05/05 01:06:07;;;;;;;9.30;7.93;;;;;;;;;;5052638;28;20476;-62
2022/05/05 01:08:33;;;;;;;7.87;7.17;;;;;;;;;;5035045;28;20445;-62
2022/05/05 01:10:59;;;;;;;9.83;8.17;;;;;;;;;;5053001;28;21016;-62
2022/05/05 01:13:27;;;;;;;8.83;7.93;;;;;;;;;;5052886;28;20540;-62
2022/05/05 01:15:54;;;;;;;10.70;8.60;;;;;;;;;;5052838;28;20406;-62
2022/05/05 01:18:20;;;;;;;8.10;7.40;;;;;;;;;;5053551;28;20417;-61
2022/05/05 01:20:47;;;;;;;9.77;7.97;;;;;;;;;;5056982;28;20768;-65
2022/05/05 01:23:14;;;;;;;8.90;7.93;;;;;;;;;;5057002;28;20417;-64
2022/05/05 01:28:25;;;;;;;8.97;8.00;;;;;;;;;;5056899;28;20400;-66
2022/05/05 01:30:51;;;;;;;8.10;7.30;;;;;;;;;;5038773;28;20461;-65
2022/05/05 01:33:18;;;;;;;8.57;7.67;;;;;;;;;;5056648;28;20842;-65
2022/05/05 01:35:45;;;;;;;8.33;7.53;;;;;;;;;;5056656;28;20417;-62
2022/05/05 01:38:12;;;;;;;9.17;7.67;;;;;;;;;;5056763;28;20405;-62
2022/05/05 01:40:39;;;;;;;8.40;7.57;;;;;;;;;;5056587;28;21024;-64
2022/05/05 01:43:06;;;;;;;9.57;7.77;;;;;;;;;;5056668;28;20416;-65
2022/05/05 01:45:32;;;;;;;8.30;7.40;;;;;;;;;;5056515;28;20437;-65
2022/05/05 01:47:58;;;;;;;8.47;7.53;;;;;;;;;;5056448;28;20463;-63
2022/05/05 01:50:25;;;;;;;8.20;7.40;;;;;;;;;;5056351;28;20486;-65
2022/05/05 01:52:51;;;;;;;10.93;7.73;;;;;;;;;;5056370;28;20425;-65
2022/05/05 01:55:17;;;;;;;7.37;6.67;;;;;;;;;;5056375;28;20748;-64
2022/05/05 01:57:43;;;;;;;8.50;7.30;;;;;;;;;;5056298;28;20920;-63
2022/05/05 02:00:10;;;;;;;8.93;8.10;;;;;;;;;;5056239;28;20459;-64
2022/05/05 02:02:37;;;;;;;8.67;7.50;;;;;;;;;;5056404;28;20776;-63
2022/05/05 02:05:03;;;;;;;7.70;6.67;;;;;;;;;;5056008;28;20448;-65
2022/05/05 02:07:29;;;;;;;8.87;8.00;;;;;;;;;;5056028;28;20465;-62
2022/05/05 02:09:55;;;;;;;11.17;8.53;;;;;;;;;;5056115;28;20416;-65
2022/05/05 02:12:21;;;;;;;8.57;7.70;;;;;;;;;;5055846;28;20473;-62
2022/05/05 02:14:47;;;;;;;10.07;8.23;;;;;;;;;;5038143;28;20406;-62
2022/05/05 02:17:13;;;;;;;9.70;8.00;;;;;;;;;;5055940;28;20826;-64
2022/05/05 02:19:40;;;;;;;8.33;7.63;;;;;;;;;;5055992;28;20413;-63
2022/05/05 02:22:06;;;;;;;8.10;7.30;;;;;;;;;;5055889;28;20425;-64
2022/05/05 02:24:32;;;;;;;9.07;8.17;;;;;;;;;;5055456;28;20445;-62
2022/05/05 02:26:58;;;;;;;7.87;7.07;;;;;;;;;;5037856;28;20406;-64
2022/05/05 02:29:24;;;;;;;8.60;7.43;;;;;;;;;;5055209;28;20428;-66
2022/05/05 02:31:50;;;;;;;9.97;7.60;;;;;;;;;;5055582;28;20578;-65
2022/05/05 02:34:16;;;;;;;8.67;7.80;;;;;;;;;;5055755;28;20398;-63
2022/05/05 02:39:26;;;;;;;8.20;7.40;;;;;;;;;;5055868;28;20907;-66
2022/05/05 02:41:52;;;;;;;8.00;7.30;;;;;;;;;;5055489;28;20405;-62
2022/05/05 02:44:18;;;;;;;8.83;7.37;;;;;;;;;;5055432;28;20457;-65
2022/05/05 02:46:44;;;;;;;8.47;7.60;;;;;;;;;;5055286;28;20413;-64
2022/05/05 02:49:12;;;;;;;9.03;7.80;;;;;;;;;;5055370;28;20421;-65
2022/05/05 02:51:38;;;;;;;7.87;7.07;;;;;;;;;;5055280;28;20497;-64
2022/05/05 02:56:49;;;;;;;9.23;7.50;;;;;;;;;;5055509;28;20817;-64
2022/05/05 02:59:15;;;;;;;8.60;7.80;;;;;;;;;;5055082;28;20413;-66
2022/05/05 03:01:41;;;;;;;8.10;7.30;;;;;;;;;;5055025;28;20546;-65
2022/05/05 03:04:07;;;;;;;8.10;7.30;;;;;;;;;;5054758;28;20434;-64
2022/05/05 03:06:33;;;;;;;9.27;7.70;;;;;;;;;;5054874;28;20461;-65
2022/05/05 03:08:59;;;;;;;8.93;8.03;;;;;;;;;;5054996;28;20393;-66
2022/05/05 03:11:25;;;;;;;8.80;7.90;;;;;;;;;;5054808;28;20475;-66
2022/05/05 03:13:51;;;;;;;12.50;7.60;;;;;;;;;;5055032;28;20397;-66
2022/05/05 03:16:17;;;;;;;10.57;8.10;;;;;;;;;;5054795;28;20410;-64
2022/05/05 03:18:44;;;;;;;10.97;8.77;;;;;;;;;;5054771;28;20405;-63
2022/05/05 03:21:10;;;;;;;9.00;8.20;;;;;;;;;;5054643;28;20912;-63
2022/05/05 03:23:36;;;;;;;10.30;8.13;;;;;;;;;;5054672;28;20444;-62
2022/05/05 03:26:02;;;;;;;9.20;8.10;;;;;;;;;;5054634;28;20463;-62
2022/05/05 03:28:28;;;;;;;9.73;8.23;;;;;;;;;;5036627;28;20759;-63
2022/05/05 03:30:54;;;;;;;10.53;8.00;;;;;;;;;;5054482;28;20452;-63
2022/05/05 03:33:20;;;;;;;8.30;7.60;;;;;;;;;;5054511;28;20441;-64
2022/05/05 03:35:46;;;;;;;8.90;8.00;;;;;;;;;;5054405;28;20409;-65
2022/05/05 03:38:12;;;;;;;11.20;7.90;;;;;;;;;;5036538;28;20583;-62
2022/05/05 03:40:38;;;;;;;8.70;7.63;;;;;;;;;;5053725;28;20474;-62
2022/05/05 03:43:04;;;;;;;9.30;7.47;;;;;;;;;;5053910;28;20915;-64
2022/05/05 03:45:30;;;;;;;8.97;7.40;;;;;;;;;;5054240;28;20406;-63
2022/05/05 03:47:56;;;;;;;8.77;7.90;;;;;;;;;;5054207;28;20421;-63
2022/05/05 03:50:22;;;;;;;8.50;7.60;;;;;;;;;;5054185;28;20418;-63
2022/05/05 03:52:48;;;;;;;8.43;7.60;;;;;;;;;;5054096;28;20481;-63
2022/05/05 03:55:14;;;;;;;8.73;7.90;;;;;;;;;;5054040;28;20927;-62
2022/05/05 03:57:40;;;;;;;10.40;8.47;;;;;;;;;;5053979;28;20425;-65
2022/05/05 04:00:07;;;;;;;9.30;7.80;;;;;;;;;;5053943;28;20422;-62
2022/05/05 04:02:33;;;;;;;12.10;8.07;;;;;;;;;;5053828;28;20504;-63
2022/05/05 04:04:58;;;;;;;9.00;8.10;;;;;;;;;;5053824;28;20904;-62
2022/05/05 04:07:24;;;;;;;9.80;8.50;;;;;;;;;;5053816;28;20465;-63
2022/05/05 04:09:53;;;;;;;9.27;8.33;;;;;;;;;;5053811;28;20406;-63
2022/05/05 04:12:20;;;;;;;8.90;8.00;;;;;;;;;;5035708;28;20505;-62
2022/05/05 04:14:47;;;;;;;8.60;7.80;;;;;;;;;;5053672;28;20488;-62
2022/05/05 04:17:13;;;;;;;8.90;7.97;;;;;;;;;;5053694;28;20405;-65
2022/05/05 04:19:39;;;;;;;10.53;8.50;;;;;;;;;;5053580;28;20406;-65
2022/05/05 04:22:06;;;;;;;9.97;8.20;;;;;;;;;;5053639;28;20398;-64
2022/05/05 04:24:32;;;;;;;10.00;8.30;;;;;;;;;;5053425;28;20757;-64
2022/05/05 04:26:58;;;;;;;9.03;8.10;;;;;;;;;;5053496;28;20445;-66
2022/05/05 04:29:24;;;;;;;9.60;7.97;;;;;;;;;;5053476;28;20385;-66
2022/05/05 04:31:50;;;;;;;8.73;7.83;;;;;;;;;;5053304;28;20472;-64
2022/05/05 04:34:16;;;;;;;10.00;9.00;;;;;;;;;;5053413;28;20432;-65
2022/05/05 04:36:42;;;;;;;12.30;9.47;;;;;;;;;;5053170;28;20425;-63
2022/05/05 04:39:08;;;;;;;10.23;8.43;;;;;;;;;;5053336;28;20417;-64
2022/05/05 04:41:35;;;;;;;9.47;8.47;;;;;;;;;;5053123;28;20425;-64
2022/05/05 04:44:01;;;;;;;9.63;8.70;;;;;;;;;;5053015;28;20919;-62
2022/05/05 04:46:27;;;;;;;10.83;7.90;;;;;;;;;;5053083;28;20421;-63
2022/05/05 04:48:53;;;;;;;11.40;8.90;;;;;;;;;;5053242;28;20409;-61
2022/05/05 04:51:19;;;;;;;9.80;8.57;;;;;;;;;;5053136;28;20568;-62
2022/05/05 04:53:45;;;;;;;10.57;8.83;;;;;;;;;;5052905;28;20497;-63
2022/05/05 04:56:12;;;;;;;8.90;7.93;;;;;;;;;;5053064;28;20421;-63
2022/05/05 04:58:38;;;;;;;9.63;8.53;;;;;;;;;;5035283;28;20420;-64
2022/05/05 05:01:04;;;;;;;11.00;9.77;;;;;;;;;;5052961;28;20512;-62
2022/05/05 05:03:35;;;;;;;9.87;8.87;;;;;;;;;;5052722;28;20520;-62
2022/05/05 05:06:01;;;;;;;11.50;9.90;;;;;;;;;;5052644;28;20556;-63
2022/05/05 05:08:27;;;;;;;11.70;9.70;;;;;;;;;;5052939;28;20413;-62
2022/05/05 05:10:53;;;;;;;11.30;8.90;;;;;;;;;;5052979;28;20527;-63
2022/05/05 05:13:19;;;;;;;12.30;11.00;;;;;;;;;;5052936;28;20520;-62
2022/05/05 05:15:45;;;;;;;10.23;8.97;;;;;;;;;;5052858;28;20398;-62
2022/05/05 05:18:11;;;;;;;11.83;9.80;;;;;;;;;;5052987;28;20416;-62
2022/05/05 05:20:37;;;;;;;11.10;9.60;;;;;;;;;;5052787;28;20504;-63
2022/05/05 05:23:03;;;;;;;11.17;10.07;;;;;;;;;;5052788;28;20413;-62
2022/05/05 05:25:29;;;;;;;11.83;8.90;;;;;;;;;;5052710;28;20424;-63
2022/05/05 05:27:57;;;;;;;10.77;9.10;;;;;;;;;;5052948;28;20418;-63
2022/05/05 05:30:23;;;;;;;10.40;9.30;;;;;;;;;;5052770;28;20772;-64
2022/05/05 05:32:49;;;;;;;12.27;9.10;;;;;;;;;;5052572;28;20481;-63
2022/05/05 05:35:15;;;;;;;10.93;9.83;;;;;;;;;;5052586;28;20409;-62
2022/05/05 05:37:42;;;;;;;10.10;9.10;;;;;;;;;;5052622;28;20417;-63
2022/05/05 05:40:08;;;;;;;13.70;9.87;;;;;;;;;;5052608;28;20914;-63
2022/05/05 05:42:34;;;;;;;14.17;10.17;;;;;;;;;;5052553;28;20467;-63
2022/05/05 05:45:00;;;;;;;12.50;10.17;;;;;;;;;;5052640;28;20406;-62
2022/05/05 05:47:26;;;;;;;13.63;10.10;;;;;;;;;;5052649;28;20413;-62
2022/05/05 05:49:52;;;;;;;14.00;10.50;;;;;;;;;;5052432;28;20406;-63
2022/05/05 05:52:18;;;;;;;13.37;10.60;;;;;;;;;;5034716;28;20488;-63
2022/05/05 05:54:44;;;;;;;12.97;11.40;;;;;;;;;;5052441;28;20413;-63
2022/05/05 05:57:10;;;;;;;14.13;11.00;;;;;;;;;;5052573;28;20943;-66
2022/05/05 05:59:36;;;;;;;14.53;11.93;;;;;;;;;;5052472;28;20409;-63
2022/05/05 06:04:47;;;;;;;13.10;10.70;;;;;;;;;;5054029;28;20405;-66
2022/05/05 06:07:13;;;;;;;15.80;12.07;;;;;;;;;;5055953;28;20456;-65
2022/05/05 06:09:39;;;;;;;11.67;10.47;;;;;;;;;;5056052;28;20899;-63
2022/05/05 06:12:06;;;;;;;13.00;11.40;;;;;;;;;;5055941;28;20473;-63
2022/05/05 06:14:32;;;;;;;15.67;11.87;;;;;;;;;;5055981;28;20409;-66
2022/05/05 06:16:58;;;;;;;14.37;11.50;;;;;;;;;;5056073;28;20405;-65
2022/05/05 06:19:24;;;;;;;15.00;11.67;;;;;;;;;;5055839;28;20422;-65
2022/05/05 06:21:51;;;;;;;16.80;12.23;;;;;;;;;;5055908;28;20417;-62
2022/05/05 06:24:17;;;;;;;14.50;11.97;;;;;;;;;;5055691;28;20402;-63
2022/05/05 06:26:43;;;;;;;19.40;12.10;;;;;;;;;;5055705;28;20775;-64
2022/05/05 06:29:09;;;;;;;14.50;11.10;;;;;;;;;;5055770;28;20401;-64
2022/05/05 06:31:35;;;;;;;11.67;9.90;;;;;;;;;;5037706;28;20448;-62
2022/05/05 06:34:01;;;;;;;13.50;10.20;;;;;;;;;;5055462;28;20445;-63
2022/05/05 06:36:27;;;;;;;13.40;10.97;;;;;;;;;;5037614;28;20420;-62
2022/05/05 06:38:53;;;;;;;11.27;9.90;;;;;;;;;;5055472;28;20413;-65
2022/05/05 06:41:20;;;;;;;10.93;9.80;;;;;;;;;;5055353;28;20413;-63
2022/05/05 06:43:46;;;;;;;11.83;9.20;;;;;;;;;;5055252;28;20488;-65
2022/05/05 06:46:12;;;;;;;13.50;9.10;;;;;;;;;;5055326;28;20409;-66
2022/05/05 06:48:38;;;;;;;11.13;9.87;;;;;;;;;;5055277;28;20417;-64
2022/05/05 06:51:04;;;;;;;12.80;9.03;;;;;;;;;;5055225;28;20469;-63
2022/05/05 06:53:31;;;;;;;14.67;10.87;;;;;;;;;;5055392;28;20402;-68
2022/05/05 06:55:58;;;;;;;15.80;11.77;;;;;;;;;;5055157;28;20469;-65
2022/05/05 06:58:25;;;;;;;11.27;9.37;;;;;;;;;;5055261;28;20398;-63
2022/05/05 07:03:35;;;;;;;16.60;9.80;;;;;;;;;;5055228;28;20495;-65
2022/05/05 07:06:01;;;;;;;15.83;10.30;;;;;;;;;;5054674;28;20944;-63
2022/05/05 07:10:52;;;;;;;12.70;10.17;;;;;;;;;;5055068;28;20489;-65
2022/05/05 07:11:14;;;;;;;10.50;9.40;;;;;;;;;;5054819;28;20527;-65
2022/05/05 07:13:40;;;;;;;18.47;10.73;;;;;;;;;;5054923;28;20410;-63
2022/05/05 07:16:06;;;;;;;14.77;9.50;;;;;;;;;;5036684;28;20914;-65
2022/05/05 07:18:32;;;;;;;11.67;9.73;;;;;;;;;;5054837;28;20444;-64
2022/05/05 07:20:58;;;;;;;16.80;10.00;;;;;;;;;;5054755;28;20401;-66
2022/05/05 07:23:24;;;;;;;13.30;10.10;;;;;;;;;;5054509;28;20770;-65
2022/05/05 07:25:50;;;;;;;10.97;9.53;;;;;;;;;;5054560;28;20406;-63
2022/05/05 07:28:16;;;;;;;13.03;9.67;;;;;;;;;;5054554;28;20505;-64
2022/05/05 07:30:44;;;;;;;11.97;9.90;;;;;;;;;;5054521;28;20508;-65
2022/05/05 07:33:10;;;;;;;12.10;10.63;;;;;;;;;;5054402;28;20503;-64
2022/05/05 07:35:38;;;;;;;12.23;10.20;;;;;;;;;;5054411;28;20430;-64
2022/05/05 07:38:04;;;;;;;11.67;9.70;;;;;;;;;;5054497;28;20410;-64
2022/05/05 07:40:30;;;;;;;11.20;9.30;;;;;;;;;;5054447;28;20493;-66
2022/05/05 07:42:56;;;;;;;10.83;8.97;;;;;;;;;;5054141;28;20576;-66
2022/05/05 07:45:22;;;;;;;14.30;10.23;;;;;;;;;;5036332;28;20536;-66
2022/05/05 07:47:49;;;;;;;13.70;10.30;;;;;;;;;;5054312;28;20507;-65
2022/05/05 07:50:15;;;;;;;12.67;9.90;;;;;;;;;;5054238;28;20433;-62
2022/05/05 07:52:41;;;;;;;11.17;9.97;;;;;;;;;;5054085;28;20469;-67
2022/05/05 07:55:08;;;;;;;12.57;10.53;;;;;;;;;;5053947;28;20398;-64
2022/05/05 07:57:42;;;;;;;13.87;10.53;;;;;;;;;;5053998;28;20402;-66
2022/05/05 08:00:10;;;;;;;14.90;11.63;;;;;;;;;;5053984;28;20472;-65
2022/05/05 08:02:36;;;;;;;16.03;10.07;;;;;;;;;;5053693;28;20440;-65
2022/05/05 08:05:03;;;;;;;14.70;11.70;;;;;;;;;;5053873;28;20469;-65
2022/05/05 08:07:28;;;;;;;17.13;11.00;;;;;;;;;;5053646;28;20464;-67
2022/05/05 08:09:55;;;;;;;14.30;11.70;;;;;;;;;;5053816;28;21017;-65
2022/05/05 08:12:21;;;;;;;15.50;12.53;;;;;;;;;;5053559;28;20489;-63
2022/05/05 08:14:48;;;;;;;16.70;11.93;;;;;;;;;;5053672;28;20445;-63
2022/05/05 08:17:14;;;;;;;16.10;11.80;;;;;;;;;;5053549;28;20824;-65
2022/05/05 08:19:40;;;;;;;15.00;10.70;;;;;;;;;;5053557;28;20405;-65
2022/05/05 08:22:06;;;;;;;14.43;12.00;;;;;;;;;;5053645;28;20587;-65
2022/05/05 08:30:04;;;;;;;13.67;11.83;;;;;;;;;;5053572;28;20752;-63
2022/05/05 08:32:30;;;;;;;14.83;11.80;;;;;;;;;;5053252;28;20551;-62
2022/05/05 08:34:56;;;;;;;15.30;11.70;;;;;;;;;;5053308;28;20406;-63
2022/05/05 08:37:22;;;;;;;13.13;11.30;;;;;;;;;;5053349;28;20810;-61
2022/05/05 08:39:48;;;;;;;13.80;11.00;;;;;;;;;;5053296;28;20445;-63
2022/05/05 08:42:14;;;;;;;18.77;10.97;;;;;;;;;;5053236;28;20500;-64
2022/05/05 08:44:40;;;;;;;14.53;12.10;;;;;;;;;;5052993;28;20401;-63
2022/05/05 08:47:10;;;;;;;15.70;13.47;;;;;;;;;;5053179;28;20761;-63
2022/05/05 08:49:39;;;;;;;15.70;12.57;;;;;;;;;;5053278;28;20394;-62
2022/05/05 08:52:08;;;;;;;16.50;12.37;;;;;;;;;;5053192;28;20508;-63
2022/05/05 08:54:35;;;;;;;18.63;12.23;;;;;;;;;;5053110;28;20513;-62
2022/05/05 08:57:01;;;;;;;14.43;12.00;;;;;;;;;;5053069;28;20421;-62
2022/05/05 08:59:27;;;;;;;14.10;12.00;;;;;;;;;;5052983;28;20775;-63
2022/05/05 09:01:53;;;;;;;14.20;12.67;;;;;;;;;;5052879;28;20417;-62
2022/05/05 09:04:20;;;;;;;18.60;14.83;;;;;;;;;;5052894;28;20423;-66
2022/05/05 09:06:47;;;;;;;15.90;12.33;;;;;;;;;;5052429;28;20872;-66
2022/05/05 09:09:31;;;;;;;21.80;14.97;;;;;;;;;;5072910;28;20412;-68
2022/05/05 09:12:13;;;;;;;16.20;13.67;;;;;;;;;;5072810;28;20464;-67
2022/05/05 09:14:44;;;;;;;21.97;15.50;;;;;;;;;;5072855;28;20456;-67
2022/05/05 09:17:32;;;;;;;19.20;15.53;;;;;;;;;;5072893;28;20392;-66
2022/05/05 09:19:59;;;;;;;23.00;16.70;;;;;;;;;;5071670;28;20413;-67
2022/05/05 09:22:26;;;;;;;21.30;16.97;;;;;;;;;;5072714;28;20385;-66
2022/05/05 09:24:56;;;;;;;22.40;16.33;;;;;;;;;;5072863;28;20413;-66
2022/05/05 09:27:22;;;;;;;19.93;16.50;;;;;;;;;;5072928;28;20896;-66
2022/05/05 09:30:00;;;;;;;21.17;16.40;;;;;;;;;;5072845;28;20462;-67
2022/05/05 09:32:33;;;;;;;19.90;16.10;;;;;;;;;;5072638;28;20496;-68
2022/05/05 09:35:02;;;;;;;19.70;15.70;;;;;;;;;;5072708;28;20397;-66
2022/05/05 09:37:28;;;;;;;17.63;14.30;;;;;;;;;;5072762;28;20768;-66
2022/05/05 09:39:57;;;;;;;19.90;16.30;;;;;;;;;;5074237;28;20400;-66
2022/05/05 09:42:38;;;;;;;22.47;17.20;;;;;;;;;;5076707;28;20425;-66
2022/05/05 09:45:17;;;;;;;20.30;16.37;;;;;;;;;;5076513;28;20509;-66
2022/05/05 09:47:48;;;;;;;24.23;18.47;;;;;;;;;;5076516;28;20763;-66
2022/05/05 09:50:14;;;;;;;20.07;16.73;;;;;;;;;;5076434;28;20435;-66
2022/05/05 09:58:13;;;;;;;20.47;15.67;;;;;;;;;;5076367;28;20484;-65
2022/05/05 10:05:52;;;;;;;19.33;16.33;;;;;;;;;;5072937;28;20515;-62
2022/05/05 10:08:21;;;;;;;22.27;16.93;;;;;;;;;;5055736;28;20422;-63
2022/05/05 10:10:47;;;;;;;22.23;16.03;;;;;;;;;;5055807;28;20410;-66
2022/05/05 10:13:13;;;;;;;22.40;16.53;;;;;;;;;;5055929;28;20422;-63
2022/05/05 10:15:40;;;;;;;22.30;18.57;;;;;;;;;;5055653;28;20426;-65
2022/05/05 10:18:06;;;;;;;22.50;17.83;;;;;;;;;;5038076;28;20765;-62
2022/05/05 10:20:33;;;;;;;21.40;17.20;;;;;;;;;;5055677;28;20420;-63
2022/05/05 10:23:05;;;;;;;19.77;17.33;;;;;;;;;;5055742;28;20409;-63
2022/05/05 10:25:35;;;;;;;21.93;17.37;;;;;;;;;;5055661;28;20947;-64
2022/05/05 10:28:01;;;;;;;20.63;17.63;;;;;;;;;;5055751;28;20414;-66
2022/05/05 10:30:37;;;;;;;19.10;17.07;;;;;;;;;;5055589;28;20420;-65
2022/05/05 10:33:04;;;;;;;22.60;17.87;;;;;;;;;;5055424;28;20508;-64
2022/05/05 10:35:47;;;;;;;20.20;17.53;;;;;;;;;;5055515;28;20421;-63
2022/05/05 10:38:32;;;;;;;23.33;17.93;;;;;;;;;;5055533;28;20982;-62
2022/05/05 10:40:58;;;;;;;22.83;17.90;;;;;;;;;;5055605;28;20495;-64
2022/05/05 10:43:33;;;;;;;25.80;18.20;;;;;;;;;;5055393;28;20447;-63
2022/05/05 10:45:59;;;;;;;22.37;17.60;;;;;;;;;;5055483;28;20405;-62
2022/05/05 10:48:31;;;;;;;22.97;17.27;;;;;;;;;;5055241;28;20407;-63
2022/05/05 10:51:05;;;;;;;24.80;19.90;;;;;;;;;;5055129;28;20917;-63
2022/05/05 10:53:39;;;;;;;27.47;20.20;;;;;;;;;;5055360;28;20504;-63
2022/05/05 10:56:25;;;;;;;27.17;22.00;;;;;;;;;;5055329;28;21026;-63
2022/05/05 10:59:03;;;;;;;19.60;16.53;;;;;;;;;;5055189;28;20393;-62
2022/05/05 11:01:49;;;;;;;25.10;20.80;;;;;;;;;;5055033;28;20416;-62
2022/05/05 11:04:15;;;;;;;20.47;18.27;;;;;;;;;;5041046;28;20410;-63
2022/05/05 11:06:48;;;;;;;22.90;18.87;;;;;;;;;;5054780;28;20465;-62
2022/05/05 11:09:30;;;;;;;25.77;19.77;;;;;;;;;;5054754;28;20394;-62
2022/05/05 11:12:15;;;;;;;27.93;21.30;;;;;;;;;;5054632;28;20457;-62
2022/05/05 11:23:19;;;;;;;28.43;22.10;;;;;;;;;;5054627;28;20761;-68
2022/05/05 11:25:45;;;;;;;24.40;20.07;;;;;;;;;;5054502;28;20421;-63
2022/05/05 11:28:13;;;;;;;27.30;20.27;;;;;;;;;;5054598;28;20425;-66
2022/05/05 11:30:42;;;;;;;29.40;21.00;;;;;;;;;;5054460;28;20413;-66
2022/05/05 11:33:08;;;;;;;28.90;21.23;;;;;;;;;;5054150;28;20477;-66
2022/05/05 11:35:34;;;;;;;28.53;21.50;;;;;;;;;;5054317;28;20778;-66
2022/05/05 11:38:00;;;;;;;23.90;18.67;;;;;;;;;;5054403;28;20413;-61
2022/05/05 11:40:26;;;;;;;29.00;22.30;;;;;;;;;;5054340;28;20413;-64
2022/05/05 11:45:37;;;;;;;33.67;23.47;;;;;;;;;;5054243;28;20409;-65
2022/05/05 11:48:16;;;;;;;26.97;21.17;;;;;;;;;;5054175;28;20416;-64
2022/05/05 11:50:45;;;;;;;24.50;20.53;;;;;;;;;;5054336;28;20488;-66
2022/05/05 11:53:18;;;;;;;28.20;21.73;;;;;;;;;;5054225;28;20775;-64
2022/05/05 11:55:45;;;;;;;31.27;23.50;;;;;;;;;;5053896;28;20409;-64
2022/05/05 12:01:36;;;;;;;36.07;24.00;;;;;;;;;;5054109;28;20473;-65
2022/05/05 12:04:02;;;;;;;31.67;22.17;;;;;;;;;;5053713;28;20448;-64
2022/05/05 12:06:29;;;;;;;27.47;20.50;;;;;;;;;;5053726;28;20807;-65
2022/05/05 12:08:58;;;;;;;30.60;21.87;;;;;;;;;;5053918;28;20406;-66
2022/05/05 12:11:27;;;;;;;34.60;23.00;;;;;;;;;;5053785;28;20480;-64
2022/05/05 12:13:59;;;;;;;36.30;24.13;;;;;;;;;;5053789;28;20447;-66
2022/05/05 12:16:30;;;;;;;34.43;24.03;;;;;;;;;;5053937;28;20406;-64
2022/05/05 12:18:56;;;;;;;36.63;23.87;;;;;;;;;;5053810;28;20410;-65
2022/05/05 12:21:25;;;;;;;34.47;24.10;;;;;;;;;;5053717;28;20493;-65
2022/05/05 12:23:56;;;;;;;31.50;24.33;;;;;;;;;;5053527;28;20474;-64
2022/05/05 12:26:28;;;;;;;35.37;24.67;;;;;;;;;;5035667;28;20421;-64
2022/05/05 12:28:54;;;;;;;37.20;25.30;;;;;;;;;;5053700;28;20409;-67
2022/05/05 12:31:24;;;;;;;37.03;25.13;;;;;;;;;;5053407;28;20527;-64
2022/05/05 12:33:51;;;;;;;38.30;24.93;;;;;;;;;;5053302;28;20936;-65
2022/05/05 12:36:18;;;;;;;34.70;23.63;;;;;;;;;;5053319;28;20390;-65
2022/05/05 12:38:44;;;;;;;36.47;24.60;;;;;;;;;;5053394;28;20418;-64
2022/05/05 12:41:10;;;;;;;41.10;24.70;;;;;;;;;;5053359;28;20404;-65
2022/05/05 12:43:37;;;;;;;36.00;23.30;;;;;;;;;;5053189;28;20456;-67
2022/05/05 12:46:03;;;;;;;42.77;23.07;;;;;;;;;;5053248;28;20405;-64
2022/05/05 12:48:30;;;;;;;38.03;25.00;;;;;;;;;;5053198;28;20413;-62
2022/05/05 12:50:56;;;;;;;35.10;23.27;;;;;;;;;;5053031;28;20417;-66
2022/05/05 13:01:40;;;;;;;31.97;21.77;;;;;;;;;;5053125;28;20500;-66
2022/05/05 13:04:09;;;;;;;33.10;23.03;;;;;;;;;;5052650;28;20483;-63
2022/05/05 13:06:36;;;;;;;35.90;22.70;;;;;;;;;;5052587;28;20469;-63
2022/05/05 13:09:04;;;;;;;33.27;22.37;;;;;;;;;;5052887;28;20405;-66
2022/05/05 13:11:31;;;;;;;33.23;21.77;;;;;;;;;;5052674;28;20473;-64
2022/05/05 13:13:57;;;;;;;35.60;22.90;;;;;;;;;;5055683;28;20421;-65
2022/05/05 13:16:24;;;;;;;30.30;21.50;;;;;;;;;;5059367;28;20893;-64
2022/05/05 13:18:50;;;;;;;31.17;22.23;;;;;;;;;;5059470;28;20923;-65
2022/05/05 13:21:16;;;;;;;30.10;22.00;;;;;;;;;;5059433;28;20413;-65
2022/05/05 13:23:42;;;;;;;30.80;21.47;;;;;;;;;;5059337;28;20881;-63
2022/05/05 13:26:10;;;;;;;31.40;22.20;;;;;;;;;;5059444;28;20401;-64
2022/05/05 13:28:37;;;;;;;31.30;21.03;;;;;;;;;;5059565;28;21019;-66
2022/05/05 13:31:03;;;;;;;26.57;19.10;;;;;;;;;;5059491;28;20393;-64
2022/05/05 13:33:29;;;;;;;32.17;20.93;;;;;;;;;;5059333;28;20530;-63
2022/05/05 13:35:55;;;;;;;27.27;18.23;;;;;;;;;;5059403;28;20499;-65
2022/05/05 13:38:24;;;;;;;29.53;20.47;;;;;;;;;;5059418;28;20900;-63
2022/05/05 13:40:50;;;;;;;26.90;19.33;;;;;;;;;;5059377;28;20389;-64
2022/05/05 13:43:17;;;;;;;27.57;20.27;;;;;;;;;;5059312;28;20431;-65
2022/05/05 13:45:43;;;;;;;29.33;20.80;;;;;;;;;;5059232;28;20486;-66
2022/05/05 13:48:09;;;;;;;26.60;18.77;;;;;;;;;;5059356;28;20911;-65
2022/05/05 13:50:35;;;;;;;28.50;20.30;;;;;;;;;;5059189;28;20427;-62
2022/05/05 13:53:01;;;;;;;26.10;19.83;;;;;;;;;;5059311;28;20497;-65
2022/05/05 13:55:32;;;;;;;27.13;19.90;;;;;;;;;;5059138;28;20423;-64
2022/05/05 13:57:58;;;;;;;27.53;19.00;;;;;;;;;;5059345;28;20416;-64
2022/05/05 14:00:25;;;;;;;26.03;19.40;;;;;;;;;;5059162;28;20794;-65
2022/05/05 14:02:51;;;;;;;24.90;18.37;;;;;;;;;;5041127;28;20449;-64
2022/05/05 14:05:17;;;;;;;29.00;19.70;;;;;;;;;;5059125;28;20807;-64
2022/05/05 14:13:13;;;;;;;25.97;19.60;;;;;;;;;;5059050;28;20472;-65
2022/05/05 14:15:39;;;;;;;24.37;18.73;;;;;;;;;;5059069;28;20431;-67
2022/05/05 14:18:05;;;;;;;27.03;18.73;;;;;;;;;;5059159;28;20493;-64
2022/05/05 14:20:32;;;;;;;27.13;18.43;;;;;;;;;;5059121;28;20405;-66
2022/05/05 14:22:58;;;;;;;29.03;18.87;;;;;;;;;;5058821;28;20417;-65
2022/05/05 14:25:24;;;;;;;25.47;19.10;;;;;;;;;;5056813;28;20478;-66
2022/05/05 14:27:51;;;;;;;24.03;19.77;;;;;;;;;;5055836;28;20937;-64
2022/05/05 14:30:17;;;;;;;26.37;20.43;;;;;;;;;;5055744;28;20408;-65
2022/05/05 14:32:43;;;;;;;28.80;21.40;;;;;;;;;;5055681;28;20473;-66
2022/05/05 14:35:09;;;;;;;31.60;24.20;;;;;;;;;;5055629;28;20951;-66
2022/05/05 14:37:35;;;;;;;27.50;20.70;;;;;;;;;;5055634;28;20888;-65
2022/05/05 14:40:02;;;;;;;28.37;22.10;;;;;;;;;;5055665;28;20398;-64
2022/05/05 14:42:28;;;;;;;29.47;22.77;;;;;;;;;;5055397;28;20410;-64
2022/05/05 14:44:55;;;;;;;30.63;22.10;;;;;;;;;;5055375;28;20401;-66
2022/05/05 14:47:21;;;;;;;34.90;23.57;;;;;;;;;;5055294;28;20808;-65
2022/05/05 14:49:48;;;;;;;28.30;21.17;;;;;;;;;;5055239;28;20788;-64
2022/05/05 14:52:15;;;;;;;32.83;23.70;;;;;;;;;;5037181;28;20495;-65
2022/05/05 14:54:41;;;;;;;29.00;21.83;;;;;;;;;;5055064;28;20911;-62
2022/05/05 14:57:09;;;;;;;30.67;21.47;;;;;;;;;;5055251;28;20504;-66
2022/05/05 14:59:35;;;;;;;31.67;21.57;;;;;;;;;;5055165;28;20496;-65
2022/05/05 15:02:01;;;;;;;28.03;19.40;;;;;;;;;;5054972;28;20784;-64
2022/05/05 15:04:27;;;;;;;26.50;21.00;;;;;;;;;;5054988;28;20504;-63
2022/05/05 15:06:53;;;;;;;28.70;20.37;;;;;;;;;;5054749;28;20560;-63
2022/05/05 15:09:19;;;;;;;28.20;20.47;;;;;;;;;;5055060;28;20413;-64
2022/05/05 15:11:45;;;;;;;34.33;23.63;;;;;;;;;;5054877;28;20453;-65
2022/05/05 15:14:11;;;;;;;38.00;25.27;;;;;;;;;;5054820;28;20791;-66
2022/05/05 15:16:37;;;;;;;39.93;25.90;;;;;;;;;;5054860;28;20417;-63
2022/05/05 15:19:03;;;;;;;35.90;24.97;;;;;;;;;;5054772;28;20429;-67
2022/05/05 15:21:29;;;;;;;36.73;25.80;;;;;;;;;;5054792;28;20394;-64
2022/05/05 15:23:55;;;;;;;40.77;26.57;;;;;;;;;;5054590;28;20417;-66
2022/05/05 15:26:23;;;;;;;37.93;26.13;;;;;;;;;;5054768;28;20536;-64
2022/05/05 15:28:53;;;;;;;39.87;25.57;;;;;;;;;;5054630;28;20426;-65